createdAt,value
2019-01-26T00:00:30.092Z,36.30
2019-01-26T00:02:58.542Z,34.63
2019-01-26T00:05:26.944Z,34.55
2019-01-26T00:07:55.366Z,34.63
2019-01-26T00:10:23.772Z,35.30
2019-01-26T00:12:52.173Z,35.63
2019-01-26T00:15:20.583Z,34.70
2019-01-26T00:17:48.977Z,33.60
2019-01-26T00:20:17.387Z,36.45
2019-01-26T00:22:45.867Z,34.78
2019-01-26T00:25:14.303Z,33.90
2019-01-26T00:27:42.705Z,35.92
2019-01-26T00:30:16.024Z,35.60
2019-01-26T00:32:44.429Z,33.48
2019-01-26T00:35:12.917Z,37.40
2019-01-26T00:37:41.312Z,35.50
2019-01-26T00:40:11.760Z,38.55
2019-01-26T00:42:40.167Z,37.35
2019-01-26T00:45:10.915Z,38.53
2019-01-26T00:47:39.337Z,39.13
2019-01-26T00:50:10.065Z,39.08
2019-01-26T00:52:38.489Z,38.73
2019-01-26T00:55:08.909Z,38.75
2019-01-26T00:57:37.307Z,40.10
2019-01-26T01:00:12.059Z,40.28
2019-01-26T01:02:40.474Z,38.88
2019-01-26T01:05:09.629Z,40.12
2019-01-26T01:07:38.351Z,39.48
2019-01-26T01:10:09.916Z,38.30
2019-01-26T01:12:38.341Z,40.33
2019-01-26T01:15:10.180Z,41.68
2019-01-26T01:17:38.608Z,41.42
2019-01-26T01:20:09.458Z,41.18
2019-01-26T01:22:37.928Z,40.23
2019-01-26T01:25:08.764Z,40.05
2019-01-26T01:27:37.176Z,40.58
2019-01-26T01:30:08.672Z,42.33
2019-01-26T01:32:37.080Z,42.10
2019-01-26T01:35:05.915Z,42.48
2019-01-26T01:37:34.332Z,42.60
2019-01-26T01:40:02.743Z,41.60
2019-01-26T01:42:31.161Z,45.30
2019-01-26T01:44:59.572Z,43.90
2019-01-26T01:47:28.347Z,43.02
2019-01-26T01:49:57.184Z,43.78
2019-01-26T01:52:25.591Z,45.23
2019-01-26T01:54:54.021Z,43.98
2019-01-26T01:57:22.427Z,44.67
2019-01-26T01:59:50.827Z,45.38
2019-01-26T02:02:19.232Z,43.05
2019-01-26T02:04:47.630Z,43.78
2019-01-26T02:07:16.058Z,44.13
2019-01-26T02:09:44.451Z,44.90
2019-01-26T02:12:12.885Z,44.90
2019-01-26T02:14:41.279Z,43.45
2019-01-26T02:17:09.711Z,44.50
2019-01-26T02:19:38.124Z,44.58
2019-01-26T02:22:06.532Z,45.70
2019-01-26T02:24:34.936Z,44.27
2019-01-26T02:27:03.419Z,42.95
2019-01-26T02:29:31.815Z,44.67
2019-01-26T02:32:00.256Z,44.77
2019-01-26T02:34:28.664Z,43.42
2019-01-26T02:36:57.072Z,43.65
2019-01-26T02:39:25.469Z,43.05
2019-01-26T02:41:53.880Z,42.98
2019-01-26T02:44:22.280Z,42.30
2019-01-26T02:46:57.802Z,42.60
2019-01-26T02:49:20.891Z,43.17
2019-01-26T02:51:49.316Z,41.45
2019-01-26T02:54:17.731Z,42.35
2019-01-26T02:56:46.142Z,43.05
2019-01-26T02:59:14.553Z,42.50
2019-01-26T03:01:42.999Z,42.90
2019-01-26T03:04:11.479Z,42.55
2019-01-26T03:06:39.887Z,42.67
2019-01-26T03:09:09.163Z,45.85
2019-01-26T03:11:37.568Z,44.63
2019-01-26T03:14:06.005Z,44.38
2019-01-26T03:16:34.414Z,44.35
2019-01-26T03:19:02.829Z,44.42
2019-01-26T03:21:31.236Z,44.33
2019-01-26T03:23:59.644Z,45.20
2019-01-26T03:26:28.399Z,45.17
2019-01-26T03:28:56.815Z,41.33
2019-01-26T03:31:25.213Z,42.40
2019-01-26T03:33:53.629Z,43.78
2019-01-26T03:36:22.024Z,42.80
2019-01-26T03:38:50.428Z,43.47
2019-01-26T03:41:18.855Z,44.57
2019-01-26T03:43:47.253Z,42.57
2019-01-26T03:46:15.674Z,41.02
2019-01-26T03:48:44.108Z,41.20
2019-01-26T03:51:12.535Z,42.83
2019-01-26T03:53:41.268Z,42.35
2019-01-26T03:56:09.691Z,41.35
2019-01-26T03:58:38.210Z,39.88
2019-01-26T04:01:06.599Z,38.05
2019-01-26T04:03:35.000Z,40.30
2019-01-26T04:06:03.482Z,38.38
2019-01-26T04:08:31.903Z,36.90
2019-01-26T04:11:00.313Z,36.38
2019-01-26T04:13:28.708Z,33.88
2019-01-26T04:15:57.136Z,32.90
2019-01-26T04:18:25.529Z,32.30
2019-01-26T04:20:53.940Z,32.48
2019-01-26T04:23:22.345Z,31.33
2019-01-26T04:25:50.758Z,31.20
2019-01-26T04:28:19.149Z,29.20
2019-01-26T04:30:47.579Z,28.65
2019-01-26T04:33:16.000Z,27.48
2019-01-26T04:35:44.408Z,24.87
2019-01-26T04:38:12.800Z,24.30
2019-01-26T04:40:41.212Z,24.35
2019-01-26T04:43:09.637Z,23.42
2019-01-26T04:45:38.043Z,24.05
2019-01-26T04:48:06.449Z,23.22
2019-01-26T04:50:34.867Z,25.17
2019-01-26T04:53:03.272Z,25.12
2019-01-26T04:55:31.711Z,25.40
2019-01-26T04:58:00.116Z,24.70
2019-01-26T05:00:28.691Z,23.87
2019-01-26T05:02:57.168Z,24.80
2019-01-26T05:05:25.569Z,24.82
2019-01-26T05:07:53.973Z,24.43
2019-01-26T05:10:22.472Z,25.95
2019-01-26T05:12:50.942Z,24.95
2019-01-26T05:15:19.882Z,25.05
2019-01-26T05:17:48.374Z,24.43
2019-01-26T05:20:19.580Z,25.17
2019-01-26T05:22:48.127Z,26.90
2019-01-26T05:25:16.576Z,25.15
2019-01-26T05:27:45.061Z,24.95
2019-01-26T05:30:16.432Z,24.98
2019-01-26T05:32:44.832Z,25.02
2019-01-26T05:35:13.401Z,23.42
2019-01-26T05:37:41.829Z,24.70
2019-01-26T05:40:12.860Z,24.57
2019-01-26T05:42:41.270Z,23.87
2019-01-26T05:45:12.388Z,25.57
2019-01-26T05:47:48.143Z,23.67
2019-01-26T05:50:14.358Z,24.27
2019-01-26T05:52:42.759Z,25.27
2019-01-26T05:55:11.456Z,23.10
2019-01-26T05:57:39.863Z,23.62
2019-01-26T06:00:17.776Z,23.83
2019-01-26T06:02:46.234Z,24.37
2019-01-26T06:05:14.747Z,23.35
2019-01-26T06:07:43.155Z,23.10
2019-01-26T06:10:11.919Z,22.60
2019-01-26T06:12:40.363Z,21.20
2019-01-26T06:15:11.233Z,22.07
2019-01-26T06:17:39.652Z,22.48
2019-01-26T06:20:11.405Z,22.20
2019-01-26T06:22:39.839Z,21.27
2019-01-26T06:25:11.352Z,21.00
2019-01-26T06:27:39.760Z,21.62
2019-01-26T06:30:17.556Z,21.17
2019-01-26T06:32:45.982Z,21.77
2019-01-26T06:35:14.459Z,20.40
2019-01-26T06:37:43.179Z,21.23
2019-01-26T06:40:13.920Z,20.55
2019-01-26T06:42:42.319Z,20.27
2019-01-26T06:45:12.585Z,21.10
2019-01-26T06:47:41.276Z,20.68
2019-01-26T06:50:15.015Z,20.52
2019-01-26T06:52:43.413Z,20.92
2019-01-26T06:55:11.844Z,20.88
2019-01-26T06:57:40.237Z,19.55
2019-01-26T07:00:14.871Z,20.12
2019-01-26T07:02:43.309Z,20.37
2019-01-26T07:05:16.599Z,20.10
2019-01-26T07:07:45.015Z,19.48
2019-01-26T07:10:13.895Z,19.75
2019-01-26T07:12:42.299Z,20.50
2019-01-26T07:15:12.236Z,19.32
2019-01-26T07:17:40.632Z,19.55
2019-01-26T07:20:14.996Z,18.98
2019-01-26T07:22:43.384Z,19.57
2019-01-26T07:25:11.955Z,20.17
2019-01-26T07:27:40.375Z,20.43
2019-01-26T07:30:20.915Z,20.88
2019-01-26T07:32:49.491Z,21.30
2019-01-26T07:35:17.911Z,20.23
2019-01-26T07:37:46.321Z,21.68
2019-01-26T07:40:17.495Z,20.48
2019-01-26T07:42:45.896Z,21.20
2019-01-26T07:45:14.870Z,20.40
2019-01-26T07:47:43.300Z,19.87
2019-01-26T07:50:14.933Z,19.32
2019-01-26T07:52:43.336Z,19.37
2019-01-26T07:55:11.976Z,19.35
2019-01-26T07:57:40.719Z,18.90
2019-01-26T08:00:12.671Z,18.63
2019-01-26T08:02:41.367Z,18.35
2019-01-26T08:05:11.308Z,18.10
2019-01-26T08:07:39.722Z,17.30
2019-01-26T08:10:13.508Z,18.20
2019-01-26T08:12:42.154Z,17.55
2019-01-26T08:15:13.619Z,17.42
2019-01-26T08:17:42.040Z,17.32
2019-01-26T08:20:13.692Z,16.32
2019-01-26T08:22:42.117Z,15.83
2019-01-26T08:25:10.584Z,15.25
2019-01-26T08:27:39.077Z,15.23
2019-01-26T08:30:13.174Z,15.88
2019-01-26T08:32:41.608Z,14.25
2019-01-26T08:35:10.073Z,13.45
2019-01-26T08:37:38.480Z,14.43
2019-01-26T08:40:12.960Z,14.10
2019-01-26T08:42:41.367Z,14.70
2019-01-26T08:45:11.908Z,13.23
2019-01-26T08:47:40.497Z,13.18
2019-01-26T08:50:11.982Z,14.40
2019-01-26T08:52:40.464Z,13.10
2019-01-26T08:55:10.501Z,12.18
2019-01-26T08:57:38.932Z,11.57
2019-01-26T09:00:10.749Z,11.43
2019-01-26T09:02:55.860Z,11.20
2019-01-26T09:05:26.022Z,11.05
2019-01-26T09:07:54.435Z,10.70
2019-01-26T09:10:22.843Z,9.90
2019-01-26T09:12:51.287Z,10.48
2019-01-26T09:15:19.685Z,10.70
2019-01-26T09:17:48.097Z,10.35
2019-01-26T09:20:17.563Z,10.50
2019-01-26T09:22:45.960Z,11.70
2019-01-26T09:25:14.832Z,11.85
2019-01-26T09:27:43.532Z,11.93
2019-01-26T09:30:17.111Z,11.50
2019-01-26T09:32:45.522Z,11.53
2019-01-26T09:35:14.067Z,13.18
2019-01-26T09:37:42.919Z,13.22
2019-01-26T09:40:17.044Z,13.60
2019-01-26T09:42:45.456Z,12.60
2019-01-26T09:45:16.746Z,12.70
2019-01-26T09:47:45.416Z,13.30
2019-01-26T09:50:14.684Z,11.50
2019-01-26T09:52:44.033Z,13.28
2019-01-26T09:55:20.032Z,12.23
2019-01-26T09:57:48.593Z,11.70
2019-01-26T10:00:21.978Z,10.65
2019-01-26T10:02:50.375Z,11.97
2019-01-26T10:05:19.216Z,11.00
2019-01-26T10:07:48.925Z,13.35
2019-01-26T10:10:18.268Z,11.70
2019-01-26T10:12:46.668Z,12.00
2019-01-26T10:15:30.019Z,10.83
2019-01-26T10:17:58.411Z,11.65
2019-01-26T10:20:33.499Z,10.43
2019-01-26T10:23:02.003Z,10.50
2019-01-26T10:25:30.827Z,10.78
2019-01-26T10:27:59.255Z,10.60
2019-01-26T10:30:37.807Z,10.58
2019-01-26T10:33:06.291Z,10.00
2019-01-26T10:35:45.091Z,10.50
2019-01-26T10:38:13.543Z,10.35
2019-01-26T10:40:49.876Z,9.35
2019-01-26T10:43:20.208Z,9.55
2019-01-26T10:45:48.614Z,9.43
2019-01-26T10:48:17.017Z,8.63
2019-01-26T10:50:45.436Z,9.60
2019-01-26T10:53:13.849Z,9.10
2019-01-26T10:55:42.302Z,8.83
2019-01-26T10:58:10.759Z,9.30
2019-01-26T11:00:39.271Z,8.63
2019-01-26T11:03:08.038Z,8.83
2019-01-26T11:05:36.747Z,8.00
2019-01-26T11:08:05.408Z,8.30
2019-01-26T11:10:34.020Z,8.20
2019-01-26T11:13:02.423Z,8.40
2019-01-26T11:15:30.818Z,10.00
2019-01-26T11:17:59.528Z,8.40
2019-01-26T11:20:28.031Z,8.65
2019-01-26T11:22:56.434Z,8.23
2019-01-26T11:25:24.866Z,8.50
2019-01-26T11:27:53.319Z,8.70
2019-01-26T11:30:23.372Z,7.35
2019-01-26T11:32:51.803Z,8.38
2019-01-26T11:35:22.454Z,7.60
2019-01-26T11:37:50.848Z,8.23
2019-01-26T11:40:23.120Z,8.45
2019-01-26T11:42:52.100Z,9.33
2019-01-26T11:45:31.648Z,8.55
2019-01-26T11:48:01.702Z,7.25
2019-01-26T11:50:35.015Z,7.20
2019-01-26T11:53:04.184Z,7.65
2019-01-26T11:55:34.732Z,6.25
2019-01-26T11:58:03.147Z,7.28
2019-01-26T12:00:48.088Z,6.90
2019-01-26T12:03:27.308Z,8.10
2019-01-26T12:06:00.024Z,6.58
2019-01-26T12:08:28.476Z,7.67
2019-01-26T12:10:56.883Z,7.22
2019-01-26T12:13:25.285Z,5.97
2019-01-26T12:15:53.709Z,5.58
2019-01-26T12:18:22.103Z,5.70
2019-01-26T12:20:50.511Z,5.97
2019-01-26T12:23:18.931Z,5.75
2019-01-26T12:25:47.354Z,5.35
2019-01-26T12:28:15.764Z,6.42
2019-01-26T12:30:44.169Z,5.93
2019-01-26T12:33:12.585Z,6.20
2019-01-26T12:35:40.983Z,5.90
2019-01-26T12:38:09.551Z,6.22
2019-01-26T12:40:37.987Z,5.35
2019-01-26T12:43:06.479Z,6.03
2019-01-26T12:45:34.910Z,5.65
2019-01-26T12:48:03.904Z,5.60
2019-01-26T12:50:32.307Z,6.97
2019-01-26T12:53:00.721Z,7.47
2019-01-26T12:55:29.121Z,5.00
2019-01-26T12:57:57.525Z,4.90
2019-01-26T13:00:26.859Z,4.30
2019-01-26T13:02:55.354Z,4.97
2019-01-26T13:05:23.953Z,5.95
2019-01-26T13:07:52.365Z,11.00
2019-01-26T13:10:24.177Z,6.00
2019-01-26T13:12:52.656Z,7.45
2019-01-26T13:15:21.171Z,6.87
2019-01-26T13:17:49.588Z,7.10
2019-01-26T13:20:18.770Z,7.00
2019-01-26T13:22:47.156Z,7.10
2019-01-26T13:25:17.895Z,7.30
2019-01-26T13:27:46.404Z,7.20
2019-01-26T13:30:17.616Z,9.48
2019-01-26T13:32:46.671Z,9.15
2019-01-26T13:35:15.959Z,9.25
2019-01-26T13:37:44.378Z,13.28
2019-01-26T13:40:15.932Z,14.90
2019-01-26T13:42:45.957Z,11.10
2019-01-26T13:45:16.430Z,12.70
2019-01-26T13:47:44.879Z,13.08
2019-01-26T13:50:13.560Z,13.70
2019-01-26T13:52:41.984Z,11.10
2019-01-26T13:55:13.699Z,11.73
2019-01-26T13:57:42.173Z,11.85
2019-01-26T14:00:22.729Z,12.40
2019-01-26T14:02:51.213Z,14.10
2019-01-26T14:05:19.641Z,14.55
2019-01-26T14:07:50.007Z,17.67
2019-01-26T14:10:20.764Z,15.90
2019-01-26T14:12:49.614Z,14.40
2019-01-26T14:15:19.876Z,11.77
2019-01-26T14:17:48.644Z,12.30
2019-01-26T14:20:24.981Z,20.55
2019-01-26T14:22:53.590Z,17.35
2019-01-26T14:25:21.983Z,19.50
2019-01-26T14:27:50.528Z,17.20
2019-01-26T14:30:34.453Z,13.08
2019-01-26T14:33:02.870Z,11.28
2019-01-26T14:35:31.278Z,12.50
2019-01-26T14:37:59.697Z,11.60
2019-01-26T14:40:28.173Z,12.20
2019-01-26T14:42:56.608Z,12.30
2019-01-26T14:45:25.032Z,12.80
2019-01-26T14:47:53.463Z,13.18
2019-01-26T14:50:21.940Z,14.07
2019-01-26T14:52:50.353Z,14.10
2019-01-26T14:55:24.390Z,14.10
2019-01-26T14:57:52.792Z,13.20
2019-01-26T15:00:26.621Z,13.40
2019-01-26T15:02:55.364Z,13.22
2019-01-26T15:05:23.947Z,13.40
2019-01-26T15:07:52.349Z,12.40
2019-01-26T15:10:20.763Z,13.98
2019-01-26T15:12:49.163Z,12.28
2019-01-26T15:15:21.354Z,12.53
2019-01-26T15:17:49.768Z,12.95
2019-01-26T15:20:27.061Z,13.93
2019-01-26T15:22:55.525Z,12.80
2019-01-26T15:25:24.207Z,14.70
2019-01-26T15:27:52.604Z,15.70
2019-01-26T15:30:24.366Z,15.38
2019-01-26T15:32:52.842Z,20.73
2019-01-26T15:35:21.265Z,15.48
2019-01-26T15:37:49.677Z,17.70
2019-01-26T15:40:18.120Z,17.37
2019-01-26T15:42:46.562Z,20.75
2019-01-26T15:45:18.284Z,16.17
2019-01-26T15:47:46.697Z,16.70
2019-01-26T15:50:16.353Z,15.88
2019-01-26T15:52:45.354Z,16.37
2019-01-26T15:55:16.575Z,16.93
2019-01-26T15:57:44.980Z,17.20
2019-01-26T16:00:16.477Z,16.77
2019-01-26T16:02:44.919Z,23.18
2019-01-26T16:05:13.324Z,15.20
2019-01-26T16:07:41.738Z,17.50
2019-01-26T16:10:15.880Z,16.25
2019-01-26T16:12:46.306Z,18.85
2019-01-26T16:15:17.291Z,14.03
2019-01-26T16:17:45.703Z,15.32
2019-01-26T16:20:20.383Z,15.20
2019-01-26T16:22:46.759Z,14.98
2019-01-26T16:25:15.912Z,17.70
2019-01-26T16:27:44.323Z,15.88
2019-01-26T16:30:26.839Z,25.10
2019-01-26T16:32:55.282Z,17.73
2019-01-26T16:35:23.748Z,17.60
2019-01-26T16:37:52.190Z,16.77
2019-01-26T16:40:26.568Z,16.27
2019-01-26T16:42:55.040Z,16.75
2019-01-26T16:45:25.797Z,19.80
2019-01-26T16:47:54.221Z,21.70
2019-01-26T16:50:27.864Z,28.40
2019-01-26T16:52:54.897Z,32.70
2019-01-26T16:55:23.376Z,27.10
2019-01-26T16:57:52.127Z,27.45
2019-01-26T17:00:29.286Z,29.10
2019-01-26T17:02:58.103Z,20.37
2019-01-26T17:05:26.632Z,15.10
2019-01-26T17:07:55.124Z,14.00
2019-01-26T17:10:23.866Z,13.08
2019-01-26T17:12:52.279Z,14.47
2019-01-26T17:15:20.741Z,13.10
2019-01-26T17:17:49.172Z,13.60
2019-01-26T17:20:35.320Z,13.98
2019-01-26T17:23:03.962Z,14.40
2019-01-26T17:25:32.355Z,15.67
2019-01-26T17:28:00.774Z,15.48
2019-01-26T17:30:36.848Z,16.30
2019-01-26T17:33:07.488Z,15.50
2019-01-26T17:35:36.159Z,16.75
2019-01-26T17:38:05.403Z,16.30
2019-01-26T17:40:33.826Z,15.70
2019-01-26T17:43:02.302Z,15.93
2019-01-26T17:45:30.713Z,16.65
2019-01-26T17:47:59.154Z,15.50
2019-01-26T17:50:28.678Z,17.17
2019-01-26T17:52:57.120Z,15.43
2019-01-26T17:55:25.538Z,16.32
2019-01-26T17:57:53.943Z,16.07
2019-01-26T18:00:29.364Z,16.20
2019-01-26T18:02:57.769Z,15.83
2019-01-26T18:06:24.834Z,16.65
2019-01-26T18:08:53.420Z,18.50
2019-01-26T18:11:21.842Z,18.10
2019-01-26T18:13:50.307Z,18.17
2019-01-26T18:16:18.716Z,18.80
2019-01-26T18:18:47.153Z,21.35
2019-01-26T18:21:15.560Z,19.95
2019-01-26T18:23:44.246Z,20.65
2019-01-26T18:26:12.648Z,20.20
2019-01-26T18:28:41.072Z,22.05
2019-01-26T18:31:09.495Z,21.48
2019-01-26T18:33:37.985Z,21.33
2019-01-26T18:36:06.591Z,20.90
2019-01-26T18:38:35.036Z,21.02
2019-01-26T18:41:03.452Z,21.33
2019-01-26T18:43:31.908Z,20.90
2019-01-26T18:46:00.330Z,22.52
2019-01-26T18:48:28.735Z,23.90
2019-01-26T18:50:57.146Z,23.62
2019-01-26T18:53:25.567Z,25.27
2019-01-26T18:55:53.983Z,26.17
2019-01-26T18:58:22.415Z,26.10
2019-01-26T19:00:50.857Z,26.55
2019-01-26T19:03:24.918Z,26.15
2019-01-26T19:05:55.877Z,24.07
2019-01-26T19:08:24.438Z,24.85
2019-01-26T19:10:53.133Z,24.98
2019-01-26T19:13:23.465Z,24.05
2019-01-26T19:15:51.901Z,25.35
2019-01-26T19:18:20.376Z,24.02
2019-01-26T19:20:48.792Z,24.07
2019-01-26T19:23:17.194Z,23.75
2019-01-26T19:25:45.601Z,24.12
2019-01-26T19:28:13.999Z,25.75
2019-01-26T19:30:42.601Z,24.72
2019-01-26T19:33:10.993Z,23.80
2019-01-26T19:35:39.400Z,23.60
2019-01-26T19:38:07.816Z,22.45
2019-01-26T19:40:36.243Z,22.70
2019-01-26T19:43:04.830Z,23.00
2019-01-26T19:45:33.252Z,23.20
2019-01-26T19:48:01.640Z,22.60
2019-01-26T19:50:30.052Z,23.35
2019-01-26T19:52:58.492Z,24.63
2019-01-26T19:55:26.932Z,26.20
2019-01-26T19:57:55.369Z,25.57
2019-01-26T20:00:23.772Z,25.50
2019-01-26T20:02:52.172Z,25.68
2019-01-26T20:05:25.040Z,23.33
2019-01-26T20:07:53.442Z,23.42
2019-01-26T20:10:22.287Z,24.40
2019-01-26T20:12:50.792Z,23.47
2019-01-26T20:15:21.803Z,25.37
2019-01-26T20:17:50.665Z,23.90
2019-01-26T20:20:31.203Z,24.05
2019-01-26T20:23:00.055Z,23.80
2019-01-26T20:25:28.453Z,23.92
2019-01-26T20:27:56.899Z,23.60
2019-01-26T20:30:28.550Z,24.15
2019-01-26T20:32:57.362Z,23.70
2019-01-26T20:35:25.764Z,24.30
2019-01-26T20:37:54.600Z,24.10
2019-01-26T20:40:23.949Z,24.20
2019-01-26T20:42:52.356Z,24.63
2019-01-26T20:45:24.326Z,25.88
2019-01-26T20:47:52.786Z,26.20
2019-01-26T20:50:21.484Z,26.50
2019-01-26T20:52:49.895Z,27.35
2019-01-26T20:55:18.296Z,27.75
2019-01-26T20:57:46.705Z,29.80
2019-01-26T21:00:24.003Z,28.17
2019-01-26T21:02:52.440Z,27.15
2019-01-26T21:05:20.898Z,26.10
2019-01-26T21:07:49.316Z,27.02
2019-01-26T21:10:23.483Z,27.32
2019-01-26T21:12:51.919Z,27.62
2019-01-26T21:15:20.325Z,26.52
2019-01-26T21:17:48.877Z,29.48
2019-01-26T21:20:24.966Z,27.27
2019-01-26T21:22:53.465Z,28.95
2019-01-26T21:25:22.011Z,29.00
2019-01-26T21:27:50.415Z,29.20
2019-01-26T21:30:24.007Z,27.87
2019-01-26T21:32:52.445Z,29.12
2019-01-26T21:35:21.244Z,29.82
2019-01-26T21:37:49.825Z,27.27
2019-01-26T21:40:21.025Z,29.20
2019-01-26T21:42:50.471Z,33.98
2019-01-26T21:45:19.024Z,32.13
2019-01-26T21:47:47.432Z,29.10
2019-01-26T21:50:19.028Z,29.90
2019-01-26T21:52:47.438Z,27.22
2019-01-26T21:55:15.839Z,29.10
2019-01-26T21:57:44.252Z,27.37
2019-01-26T22:00:15.463Z,27.00
2019-01-26T22:02:43.883Z,25.88
2019-01-26T22:05:13.485Z,26.85
2019-01-26T22:07:42.267Z,27.90
2019-01-26T22:10:13.695Z,28.40
2019-01-26T22:12:42.149Z,26.48
2019-01-26T22:15:15.863Z,28.70
2019-01-26T22:17:44.303Z,30.02
2019-01-26T22:20:15.754Z,31.07
2019-01-26T22:22:44.159Z,30.00
2019-01-26T22:25:14.096Z,28.52
2019-01-26T22:27:42.537Z,28.50
2019-01-26T22:30:22.711Z,28.95
2019-01-26T22:32:51.377Z,29.90
2019-01-26T22:35:19.854Z,29.75
2019-01-26T22:37:48.249Z,30.33
2019-01-26T22:40:22.024Z,31.30
2019-01-26T22:42:50.599Z,30.37
2019-01-26T22:45:19.128Z,29.72
2019-01-26T22:47:47.547Z,29.07
2019-01-26T22:50:18.777Z,30.43
2019-01-26T22:52:47.688Z,30.52
2019-01-26T22:55:18.531Z,30.90
2019-01-26T22:57:47.292Z,31.68
2019-01-26T23:00:26.228Z,33.28
2019-01-26T23:02:54.647Z,33.33
2019-01-26T23:05:42.624Z,31.82
2019-01-26T23:08:12.227Z,32.23
2019-01-26T23:10:49.559Z,32.83
2019-01-26T23:13:21.928Z,34.57
2019-01-26T23:16:09.902Z,37.10
2019-01-26T23:18:56.261Z,36.90
2019-01-26T23:21:27.729Z,33.88
2019-01-26T23:24:29.876Z,34.20
2019-01-26T23:27:04.112Z,33.70
2019-01-26T23:29:47.507Z,31.07
2019-01-26T23:32:15.916Z,34.27
2019-01-26T23:34:44.353Z,36.68
2019-01-26T23:37:12.791Z,35.87
2019-01-26T23:39:41.209Z,34.98
2019-01-26T23:42:09.607Z,33.95
2019-01-26T23:44:38.016Z,34.78
2019-01-26T23:47:06.430Z,33.98
2019-01-26T23:49:34.869Z,33.63
2019-01-26T23:52:03.271Z,34.00
2019-01-26T23:54:31.671Z,33.92
2019-01-26T23:57:00.111Z,33.00
2019-01-26T23:59:28.519Z,35.33
